Corona Kingdom — 7JYO — position and weather

sailwx.info

Track history (hours):
 
Tides and Currents Weather Stations Pressure Air Temp Water Temp Dewpoint Dewpoint Depression Visibility Wind Speed Wind Dir Waves Ship Positions

Corona Kingdom

Last reported at 2017-Nov-17 17:26 UTC. Time now 2017-Nov-17 17:45 UTC.
Position S 32°53' E 151°45'.

Length 229 m; draft 7.3 m.

Type: Cargo ship. MMSI: 431400000.

Date/timePositionNaut miles runAvg speedWind from/ knotsBaromVisibWave heightAir tempDewpointWater temp
2017-Nov-17 17:26S 32°53' E 151°45'0 0.0
2017-Nov-17 15:44S 32°53' E 151°45'0 0.0
2017-Nov-17 13:32S 32°53' E 151°45'0 0.0
2017-Nov-17 13:14S 32°53' E 151°45'0 0.0
2017-Nov-17 12:41S 32°53' E 151°45'0 0.0
2017-Nov-17 12:29S 32°53' E 151°45'0 0.0
2017-Nov-17 11:44S 32°53' E 151°45'0 0.0
2017-Nov-17 10:20S 32°53' E 151°45'0 0.0
2017-Nov-17 09:56S 32°53' E 151°45'0 0.0
2017-Nov-17 08:47S 32°53' E 151°45'0 0.0
2017-Nov-17 08:29S 32°53' E 151°45'0 0.0
2017-Nov-17 07:44S 32°53' E 151°45'0 0.0
2017-Nov-17 07:20S 32°53' E 151°45'0 0.0
2017-Nov-17 06:56S 32°53' E 151°45'0 0.0
2017-Nov-17 06:23S 32°53' E 151°45'0 0.0
2017-Nov-17 05:56S 32°53' E 151°45'0 0.0
2017-Nov-17 05:26S 32°53' E 151°45'0 0.0
2017-Nov-17 04:56S 32°53' E 151°45'0 0.5
2017-Nov-17 04:30S 32°53' E 151°45'1 2.1
2017-Nov-17 04:00S 32°54' E 151°46'2 3.7
2017-Nov-17 03:31S 32°55' E 151°48'4 8.8
2017-Nov-17 03:00S 32°58' E 151°52'3 5.1
2017-Nov-17 02:31S 32°60' E 151°54'4 7.1
2017-Nov-17 02:00S 33°02' E 151°57'5 9.6
2017-Nov-17 01:31S 33°06' E 152°00'1 2.7
2017-Nov-17 01:01S 33°05' E 152°01'1 2.7
2017-Nov-17 00:31S 33°04' E 152°02'1 2.5
2017-Nov-17 00:01S 33°03' E 152°02'1 2.4
2017-Nov-16 23:30S 33°02' E 152°03'1 2.4
2017-Nov-16 23:01S 33°01' E 152°03'1 2.4
2017-Nov-16 22:31S 32°59' E 152°03'2 4.4
2017-Nov-16 22:01S 32°58' E 152°01'3 6.2
2017-Nov-16 21:30S 32°55' E 152°03'612.6
2017-Nov-16 21:01S 32°53' E 152°10'815.1
2017-Nov-16 20:30S 32°48' E 152°17'816.5
2017-Nov-16 20:00S 32°42' E 152°24'917.0
2017-Nov-16 19:30S 32°37' E 152°32'917.8
2017-Nov-16 19:00S 32°31' E 152°40'24417.6
2017-Nov-16 05:10S 28°34' E 153°50'317.4
2017-Nov-16 05:00S 28°32' E 153°50'917.7
2017-Nov-16 04:30S 28°23' E 153°50'917.8
2017-Nov-16 04:00S 28°14' E 153°51'917.6
2017-Nov-16 03:30S 28°05' E 153°51'918.0
2017-Nov-16 03:00S 27°56' E 153°52'918.0
2017-Nov-16 02:30S 27°47' E 153°52'917.9
2017-Nov-16 02:00S 27°38' E 153°52'  
Track history (hours):
 
Tides and Currents Weather Stations Pressure Air Temp Water Temp Dewpoint Dewpoint Depression Visibility Wind Speed Wind Dir Waves Ship Positions

Corona Kingdom

Last reported at 2017-Nov-17 17:26 UTC. Time now 2017-Nov-17 17:45 UTC.
Position S 32°53' E 151°45'.

Length 229 m; draft 7.3 m.

Type: Cargo ship. MMSI: 431400000.

Date/timePositionNaut miles runAvg speedWind from/ knotsBaromVisibWave heightAir tempDewpointWater temp
2017-Nov-17 17:26S 32°53' E 151°45'0 0.0
2017-Nov-17 15:44S 32°53' E 151°45'0 0.0
2017-Nov-17 13:32S 32°53' E 151°45'0 0.0
2017-Nov-17 13:14S 32°53' E 151°45'0 0.0
2017-Nov-17 12:41S 32°53' E 151°45'0 0.0
2017-Nov-17 12:29S 32°53' E 151°45'0 0.0
2017-Nov-17 11:44S 32°53' E 151°45'0 0.0
2017-Nov-17 10:20S 32°53' E 151°45'0 0.0
2017-Nov-17 09:56S 32°53' E 151°45'0 0.0
2017-Nov-17 08:47S 32°53' E 151°45'0 0.0
2017-Nov-17 08:29S 32°53' E 151°45'0 0.0
2017-Nov-17 07:44S 32°53' E 151°45'0 0.0
2017-Nov-17 07:20S 32°53' E 151°45'0 0.0
2017-Nov-17 06:56S 32°53' E 151°45'0 0.0
2017-Nov-17 06:23S 32°53' E 151°45'0 0.0
2017-Nov-17 05:56S 32°53' E 151°45'0 0.0
2017-Nov-17 05:26S 32°53' E 151°45'0 0.0
2017-Nov-17 04:56S 32°53' E 151°45'0 0.5
2017-Nov-17 04:30S 32°53' E 151°45'1 2.1
2017-Nov-17 04:00S 32°54' E 151°46'2 3.7
2017-Nov-17 03:31S 32°55' E 151°48'4 8.8
2017-Nov-17 03:00S 32°58' E 151°52'3 5.1
2017-Nov-17 02:31S 32°60' E 151°54'4 7.1
2017-Nov-17 02:00S 33°02' E 151°57'5 9.6
2017-Nov-17 01:31S 33°06' E 152°00'1 2.7
2017-Nov-17 01:01S 33°05' E 152°01'1 2.7
2017-Nov-17 00:31S 33°04' E 152°02'1 2.5
2017-Nov-17 00:01S 33°03' E 152°02'1 2.4
2017-Nov-16 23:30S 33°02' E 152°03'1 2.4
2017-Nov-16 23:01S 33°01' E 152°03'1 2.4
2017-Nov-16 22:31S 32°59' E 152°03'2 4.4
2017-Nov-16 22:01S 32°58' E 152°01'3 6.2
2017-Nov-16 21:30S 32°55' E 152°03'612.6
2017-Nov-16 21:01S 32°53' E 152°10'815.1
2017-Nov-16 20:30S 32°48' E 152°17'816.5
2017-Nov-16 20:00S 32°42' E 152°24'917.0
2017-Nov-16 19:30S 32°37' E 152°32'917.8
2017-Nov-16 19:00S 32°31' E 152°40'24417.6
2017-Nov-16 05:10S 28°34' E 153°50'317.4
2017-Nov-16 05:00S 28°32' E 153°50'917.7
2017-Nov-16 04:30S 28°23' E 153°50'917.8
2017-Nov-16 04:00S 28°14' E 153°51'917.6
2017-Nov-16 03:30S 28°05' E 153°51'918.0
2017-Nov-16 03:00S 27°56' E 153°52'918.0
2017-Nov-16 02:30S 27°47' E 153°52'917.9
2017-Nov-16 02:00S 27°38' E 153°52'  

Dump ship's entire track history